Machynlleth, United Kingdom
Current Conditions -  °F | °C
As of 2:50 PM on Friday 19 Dec 2014 (Local Time) from EGOS Reporting Station
Rain Showers Rain Showers  
Wind Chill: 40°   Ceiling: 3400
Heat Index: 46°   Visibility: 6mi
Dew Point: 37°   Wind: 14mph
Humidity: 71%   Direction: 290°WNW
Pressure: 30"   Gusts: NA
Location:  52.59°N, 3.85°W
Report Text: EGOS 191450Z AUTO 29012KT 9999 -SHRA BKN034/// BKN050/// 08/03 Q1016
Loading
Personal Weather Stations






























Interactive Weather Map New forecast layout! Learn more

10-Day Weather Forecast

Advertisements
Track Severe Weather on mobile